createdAt,value
2018-06-02T05:23:48.628Z,46.06
2018-06-02T05:26:16.030Z,42.29
2018-06-02T05:28:44.385Z,42.96
2018-06-02T05:31:12.149Z,40.63
2018-06-02T05:33:39.675Z,41.18
2018-06-02T05:36:28.088Z,42.06
2018-06-02T05:38:55.477Z,42.47
2018-06-02T05:41:22.873Z,43.77
2018-06-02T05:43:50.264Z,43.24
2018-06-02T05:46:19.428Z,44.18
2018-06-02T05:48:46.825Z,43.44
2018-06-02T05:51:14.225Z,45.37
2018-06-02T05:53:47.330Z,44.68
2018-06-02T05:56:14.727Z,43.87
2018-06-02T05:58:42.274Z,43.58
2018-06-02T06:01:09.660Z,43.93
2018-06-02T06:03:37.053Z,45.47
2018-06-02T06:06:05.201Z,46.89
2018-06-02T06:08:32.681Z,49.73
2018-06-02T06:11:00.448Z,49.58
2018-06-02T06:13:27.848Z,47.48
2018-06-02T06:15:55.238Z,45.94
2018-06-02T06:18:23.377Z,45.37
2018-06-02T06:20:50.784Z,52.60
2018-06-02T06:23:18.179Z,56.22
2018-06-02T06:25:45.564Z,56.79
2018-06-02T06:28:13.461Z,59.38
2018-06-02T06:30:40.857Z,59.45
2018-06-02T06:33:09.887Z,59.63
2018-06-02T06:44:45.599Z,66.56
2018-06-02T06:47:13.013Z,64.85
2018-06-02T06:52:29.595Z,63.24
2018-06-02T06:54:57.027Z,64.77
2018-06-02T06:57:24.438Z,63.91
2018-06-02T06:59:51.842Z,63.64
2018-06-02T07:02:19.245Z,65.51
2018-06-02T07:13:54.990Z,65.93
2018-06-02T07:16:22.395Z,67.00
2018-06-02T07:21:42.024Z,66.18
2018-06-02T07:24:09.447Z,64.98
2018-06-02T07:26:36.854Z,64.49
2018-06-02T07:29:14.055Z,63.70
2018-06-02T07:31:41.526Z,63.32
2018-06-02T07:34:12.345Z,64.36
2018-06-02T07:36:39.771Z,65.11
2018-06-02T07:39:07.176Z,64.48
2018-06-02T07:41:34.595Z,64.40
2018-06-02T07:44:02.014Z,62.18
2018-06-02T07:46:29.406Z,61.85
2018-06-02T07:48:56.815Z,62.88
2018-06-02T07:51:24.237Z,63.10
2018-06-02T07:53:51.647Z,61.61
2018-06-02T07:56:19.041Z,59.92
2018-06-02T07:58:46.960Z,60.84
2018-06-02T08:01:14.358Z,61.00
2018-06-02T08:03:41.749Z,57.58
2018-06-02T08:06:09.137Z,59.36
2018-06-02T08:08:36.605Z,59.08
2018-06-02T08:11:03.942Z,58.87
2018-06-02T08:13:31.888Z,55.93
2018-06-02T08:15:59.272Z,56.30
2018-06-02T08:18:26.678Z,59.68
2018-06-02T08:20:54.071Z,57.85
2018-06-02T08:23:21.473Z,58.24
2018-06-02T08:25:48.868Z,60.01
2018-06-02T08:28:16.261Z,60.00
2018-06-02T08:30:43.656Z,59.13
2018-06-02T08:33:11.113Z,57.81
2018-06-02T08:35:38.515Z,58.98
2018-06-02T08:38:05.925Z,54.53
2018-06-02T08:40:33.335Z,54.86
2018-06-02T08:43:00.732Z,58.26
2018-06-02T08:45:28.141Z,54.57
2018-06-02T08:47:55.534Z,55.93
2018-06-02T08:50:22.935Z,55.54
2018-06-02T08:52:50.328Z,56.33
2018-06-02T08:55:17.755Z,57.93
2018-06-02T08:57:45.136Z,58.21
2018-06-02T09:00:12.576Z,58.63
2018-06-02T09:02:40.337Z,58.30
2018-06-02T09:05:07.755Z,56.13
2018-06-02T09:07:35.193Z,53.78
2018-06-02T09:10:02.601Z,56.30
2018-06-02T09:12:29.988Z,54.88
2018-06-02T09:14:57.397Z,54.71
2018-06-02T09:17:24.789Z,54.80
2018-06-02T09:19:52.205Z,57.10
2018-06-02T09:22:20.530Z,56.04
2018-06-02T09:27:40.477Z,57.80
2018-06-02T09:30:07.875Z,57.00
2018-06-02T09:32:35.260Z,55.20
2018-06-02T09:35:02.718Z,54.74
2018-06-02T09:37:30.058Z,54.99
2018-06-02T09:39:57.456Z,55.46
2018-06-02T09:42:24.854Z,55.92
2018-06-02T09:44:52.249Z,55.16
2018-06-02T09:47:19.653Z,56.08
2018-06-02T09:49:47.041Z,54.46
2018-06-02T09:52:14.441Z,55.43
2018-06-02T09:54:41.827Z,55.71
2018-06-02T09:57:09.216Z,54.44
2018-06-02T09:59:36.609Z,53.95
2018-06-02T10:02:04.012Z,54.26
2018-06-02T10:04:31.421Z,55.15
2018-06-02T10:06:58.817Z,55.92
2018-06-02T10:09:26.205Z,57.28
2018-06-02T10:11:53.624Z,58.14
2018-06-02T10:14:21.007Z,61.33
2018-06-02T10:16:48.405Z,57.66
2018-06-02T10:19:16.134Z,57.19
2018-06-02T10:21:43.532Z,54.58
2018-06-02T10:24:11.422Z,54.13
2018-06-02T10:26:38.818Z,57.79
2018-06-02T10:29:06.481Z,54.79
2018-06-02T10:31:33.898Z,61.01
2018-06-02T10:34:01.321Z,55.95
2018-06-02T10:36:28.718Z,56.78
2018-06-02T10:38:56.113Z,55.78
2018-06-02T10:41:24.980Z,58.04
2018-06-02T10:43:52.385Z,55.59
2018-06-02T10:46:19.780Z,54.57
2018-06-02T10:48:47.183Z,54.89
2018-06-02T10:51:15.354Z,52.37
2018-06-02T10:53:42.741Z,53.60
2018-06-02T10:56:10.141Z,52.90
2018-06-02T10:58:37.885Z,53.95
2018-06-02T11:01:05.264Z,54.75
2018-06-02T11:03:32.931Z,52.24
2018-06-02T11:06:00.889Z,51.96
2018-06-02T11:08:28.300Z,52.25
2018-06-02T11:10:55.804Z,54.08
2018-06-02T11:13:23.201Z,49.95
2018-06-02T11:15:50.608Z,52.31
2018-06-02T11:18:18.012Z,51.01
2018-06-02T11:20:45.400Z,53.55
2018-06-02T11:23:12.807Z,51.45
2018-06-02T11:25:40.220Z,51.22
2018-06-02T11:28:07.614Z,50.17
2018-06-02T11:30:35.011Z,47.19
2018-06-02T11:33:02.417Z,48.80
2018-06-02T11:35:29.825Z,51.05
2018-06-02T11:37:57.221Z,50.26
2018-06-02T11:40:24.678Z,50.35
2018-06-02T11:42:52.084Z,51.04
2018-06-02T11:45:19.483Z,50.48
2018-06-02T11:47:46.872Z,52.13
2018-06-02T11:50:14.275Z,50.22
2018-06-02T11:52:41.673Z,49.94
2018-06-02T11:55:09.126Z,50.87
2018-06-02T11:57:36.525Z,52.07
2018-06-02T12:00:03.921Z,51.42
2018-06-02T12:02:31.309Z,51.28
2018-06-02T12:04:58.721Z,52.00
2018-06-02T12:07:26.896Z,48.42
2018-06-02T12:09:54.365Z,51.37
2018-06-02T12:12:21.758Z,50.87
2018-06-02T12:14:49.161Z,49.59
2018-06-02T12:17:16.553Z,48.93
2018-06-02T12:19:43.968Z,48.72
2018-06-02T12:22:11.373Z,49.87
2018-06-02T12:24:38.797Z,49.08
2018-06-02T12:27:06.218Z,49.04
2018-06-02T12:29:33.995Z,49.61
2018-06-02T12:32:01.399Z,50.00
2018-06-02T12:34:28.792Z,50.89
2018-06-02T12:36:56.189Z,51.00
2018-06-02T12:39:23.589Z,49.72
2018-06-02T12:41:51.003Z,52.61
2018-06-02T12:44:18.492Z,50.78
2018-06-02T12:46:45.933Z,49.09
2018-06-02T12:49:13.363Z,49.67
2018-06-02T12:51:40.789Z,49.39
2018-06-02T12:54:08.216Z,49.19
2018-06-02T12:56:35.613Z,47.57
2018-06-02T12:59:03.021Z,50.83
2018-06-02T13:01:30.426Z,48.51
2018-06-02T13:03:58.134Z,48.65
2018-06-02T13:06:25.521Z,49.06
2018-06-02T13:08:52.929Z,50.31
2018-06-02T13:11:20.316Z,51.13
2018-06-02T13:13:48.737Z,48.75
2018-06-02T13:16:16.141Z,48.68
2018-06-02T13:18:43.525Z,49.28
2018-06-02T13:21:10.972Z,50.47
2018-06-02T13:23:38.350Z,50.17
2018-06-02T13:26:05.754Z,47.33
2018-06-02T13:28:33.148Z,49.76
2018-06-02T13:31:00.608Z,49.30
2018-06-02T13:33:28.014Z,49.71
2018-06-02T13:35:55.636Z,50.58
2018-06-02T13:38:23.117Z,50.35
2018-06-02T13:40:50.811Z,50.79
2018-06-02T13:43:18.207Z,54.83
2018-06-02T13:45:45.604Z,51.17
2018-06-02T13:48:12.994Z,50.08
2018-06-02T13:50:40.488Z,49.28
2018-06-02T13:53:07.949Z,48.01
2018-06-02T13:55:35.346Z,47.49
2018-06-02T13:58:02.749Z,48.47
2018-06-02T14:00:30.833Z,48.26
2018-06-02T14:02:58.243Z,47.12
2018-06-02T14:05:25.638Z,48.04
2018-06-02T14:07:53.029Z,47.72
2018-06-02T14:10:20.433Z,48.39
2018-06-02T14:12:47.830Z,52.44
2018-06-02T14:15:15.240Z,52.50
2018-06-02T14:17:42.632Z,48.34
2018-06-02T14:20:10.391Z,50.40
2018-06-02T14:22:37.798Z,49.84
2018-06-02T14:25:05.551Z,47.67
2018-06-02T14:27:33.009Z,49.20
2018-06-02T14:30:00.397Z,49.54
2018-06-02T14:32:27.866Z,50.23
2018-06-02T14:34:55.292Z,50.55
2018-06-02T14:37:24.340Z,51.05
2018-06-02T14:39:51.740Z,51.00
2018-06-02T14:42:19.192Z,51.91
2018-06-02T14:44:46.937Z,52.79
2018-06-02T14:47:15.572Z,48.00
2018-06-02T14:49:42.962Z,49.15
2018-06-02T14:52:10.509Z,46.30
2018-06-02T14:54:37.905Z,44.67
2018-06-02T14:57:05.311Z,44.07
2018-06-02T14:59:33.593Z,45.60
2018-06-02T15:02:01.007Z,45.09
2018-06-02T15:04:28.761Z,44.79
2018-06-02T15:06:56.378Z,45.38
2018-06-02T15:09:23.989Z,45.29
2018-06-02T15:11:51.385Z,46.17
2018-06-02T15:14:18.789Z,45.40
2018-06-02T15:16:46.199Z,44.79
2018-06-02T15:19:13.621Z,45.94
2018-06-02T15:21:41.743Z,47.04
2018-06-02T15:24:09.154Z,45.84
2018-06-02T15:26:36.616Z,45.61
2018-06-02T15:29:04.034Z,49.88
2018-06-02T15:31:31.769Z,44.66
2018-06-02T15:33:59.189Z,45.69
2018-06-02T15:36:26.724Z,47.76
2018-06-02T15:38:54.133Z,46.83
2018-06-02T15:41:21.520Z,49.63
2018-06-02T15:43:48.925Z,48.51
2018-06-02T15:46:16.379Z,48.11
2018-06-02T15:48:43.874Z,46.80
2018-06-02T15:51:11.339Z,47.31
2018-06-02T15:53:38.755Z,45.75
2018-06-02T15:56:06.145Z,48.26
2018-06-02T15:58:34.314Z,47.11
2018-06-02T16:01:01.697Z,49.68
2018-06-02T16:03:29.143Z,46.24
2018-06-02T16:05:56.501Z,46.18
2018-06-02T16:08:23.920Z,44.32
2018-06-02T16:10:51.346Z,44.31
2018-06-02T16:13:18.879Z,44.94
2018-06-02T16:15:46.276Z,46.73
2018-06-02T16:18:13.684Z,45.96
2018-06-02T16:20:41.114Z,48.17
2018-06-02T16:23:08.501Z,47.05
2018-06-02T16:25:35.893Z,48.39
2018-06-02T16:28:03.324Z,46.50
2018-06-02T16:30:30.722Z,47.02
2018-06-02T16:32:58.197Z,46.48
2018-06-02T16:35:25.592Z,43.26
2018-06-02T16:37:53.020Z,43.54
2018-06-02T16:40:20.418Z,44.86
2018-06-02T16:42:47.808Z,43.28
2018-06-02T16:45:15.201Z,45.79
2018-06-02T16:47:43.166Z,43.93
2018-06-02T16:50:10.569Z,44.58
2018-06-02T16:52:38.823Z,44.11
2018-06-02T16:55:06.233Z,43.56
2018-06-02T16:57:33.634Z,41.57
2018-06-02T17:00:01.034Z,41.60
2018-06-02T17:02:28.753Z,42.49
2018-06-02T17:04:56.164Z,41.49
2018-06-02T17:07:23.560Z,42.56
2018-06-02T17:09:50.962Z,40.17
2018-06-02T17:12:18.360Z,40.03
2018-06-02T17:14:45.763Z,40.80
2018-06-02T17:17:13.174Z,42.42
2018-06-02T17:19:41.457Z,42.08
2018-06-02T17:22:09.206Z,41.13
2018-06-02T17:24:37.075Z,43.29
2018-06-02T17:27:04.464Z,41.51
2018-06-02T17:29:31.870Z,42.20
2018-06-02T17:31:59.262Z,41.85
2018-06-02T17:34:26.684Z,41.38
2018-06-02T17:36:59.578Z,42.77
2018-06-02T17:39:26.974Z,42.84
2018-06-02T17:41:54.464Z,43.96
2018-06-02T17:44:21.880Z,43.34
2018-06-02T17:46:49.259Z,42.62
2018-06-02T17:49:16.645Z,41.92
2018-06-02T17:51:44.617Z,44.19
2018-06-02T17:54:12.009Z,45.20
2018-06-02T17:56:39.409Z,46.29
2018-06-02T17:59:06.834Z,46.60
2018-06-02T18:01:34.460Z,47.52
2018-06-02T18:04:01.845Z,49.23
2018-06-02T18:06:29.366Z,48.22
2018-06-02T18:08:56.757Z,50.15
2018-06-02T18:11:24.170Z,50.79
2018-06-02T18:13:51.566Z,50.28
2018-06-02T18:16:19.009Z,50.91
2018-06-02T18:18:46.401Z,50.16
2018-06-02T18:21:13.851Z,51.40
2018-06-02T18:23:41.233Z,52.72
2018-06-02T18:26:09.387Z,53.50
2018-06-02T18:28:36.788Z,53.98
2018-06-02T18:31:04.180Z,52.48
2018-06-02T18:36:05.399Z,52.36
2018-06-02T18:38:32.825Z,53.54
2018-06-02T18:41:00.235Z,53.33
2018-06-02T18:43:27.613Z,54.39
2018-06-02T18:45:55.019Z,54.31
2018-06-02T18:48:22.401Z,54.11
2018-06-02T18:50:49.808Z,55.80
2018-06-02T18:53:17.217Z,55.33
2018-06-02T18:55:44.603Z,55.51
2018-06-02T18:58:12.004Z,55.47
2018-06-02T19:00:39.396Z,55.59
2018-06-02T19:03:06.800Z,56.53
2018-06-02T19:05:34.194Z,56.76
2018-06-02T19:08:01.589Z,57.13
2018-06-02T19:10:28.985Z,57.47
2018-06-02T19:12:56.393Z,58.43
2018-06-02T19:15:23.850Z,58.57
2018-06-02T19:17:51.191Z,59.29
2018-06-02T19:20:18.590Z,59.86
2018-06-02T19:22:45.996Z,60.44
2018-06-02T19:25:13.385Z,61.28
2018-06-02T19:27:41.538Z,61.54
2018-06-02T19:30:08.908Z,62.96
2018-06-02T19:32:36.328Z,62.83
2018-06-02T19:35:03.727Z,63.19
2018-06-02T19:37:31.124Z,63.72
2018-06-02T19:39:58.519Z,63.94
2018-06-02T19:42:25.922Z,64.59
2018-06-02T19:44:53.326Z,64.94
2018-06-02T19:47:20.708Z,65.75
2018-06-02T19:49:48.092Z,65.88
2018-06-02T19:52:15.501Z,66.31
2018-06-02T19:54:42.893Z,67.80
2018-06-02T19:57:10.305Z,68.33
2018-06-02T19:59:38.594Z,68.34
2018-06-02T20:02:06.002Z,67.96
2018-06-02T20:04:33.396Z,68.21
2018-06-02T20:07:00.868Z,69.46
2018-06-02T20:09:28.341Z,69.61
2018-06-02T20:11:55.724Z,69.37
2018-06-02T20:14:23.138Z,69.50
2018-06-02T20:16:50.528Z,70.10
2018-06-02T20:19:17.945Z,70.26
2018-06-02T20:21:45.324Z,70.64
2018-06-02T20:24:13.609Z,70.93
2018-06-02T20:26:41.011Z,71.93
2018-06-02T20:29:08.408Z,73.01
2018-06-02T20:31:35.856Z,73.23
2018-06-02T20:34:04.021Z,73.90
2018-06-02T20:36:31.414Z,74.64
2018-06-02T20:39:00.241Z,75.33
2018-06-02T20:41:27.629Z,75.46
2018-06-02T20:43:55.029Z,75.83
2018-06-02T20:46:22.424Z,76.23
2018-06-02T20:48:49.821Z,76.77
2018-06-02T20:51:17.217Z,76.62
2018-06-02T20:53:44.735Z,76.55
2018-06-02T20:56:12.115Z,76.76
2018-06-02T20:58:39.517Z,76.48
2018-06-02T21:01:07.246Z,76.47
2018-06-02T21:03:34.641Z,76.51
2018-06-02T21:06:02.037Z,76.53
2018-06-02T21:08:38.313Z,76.48
2018-06-02T21:11:05.767Z,76.64
2018-06-02T21:13:33.164Z,76.31
2018-06-02T21:16:00.556Z,75.86
2018-06-02T21:18:27.949Z,76.28
2018-06-02T21:20:55.336Z,76.58
2018-06-02T21:23:22.724Z,76.76
2018-06-02T21:25:50.131Z,76.96
2018-06-02T21:28:17.525Z,77.25
2018-06-02T21:30:44.936Z,78.16
2018-06-02T21:33:13.144Z,78.53
2018-06-02T21:35:40.536Z,78.59
2018-06-02T21:38:07.928Z,78.06
2018-06-02T21:40:35.335Z,78.18
2018-06-02T21:43:02.733Z,78.57
2018-06-02T21:45:30.176Z,79.22
2018-06-02T21:47:57.576Z,79.88
2018-06-02T21:50:24.969Z,80.34
2018-06-02T21:52:52.361Z,80.09
2018-06-02T21:55:19.786Z,80.51
2018-06-02T21:57:47.149Z,80.92
2018-06-02T22:03:18.747Z,82.33
2018-06-02T22:05:46.849Z,82.48
2018-06-02T22:08:15.016Z,82.61
2018-06-02T22:10:43.133Z,83.13
2018-06-02T22:13:11.301Z,83.43
2018-06-02T22:15:39.408Z,84.14
2018-06-02T22:18:07.557Z,84.59
2018-06-02T22:20:35.732Z,84.78
2018-06-02T22:23:03.892Z,85.46
2018-06-02T22:25:32.308Z,85.29
2018-06-02T22:28:00.433Z,85.95
2018-06-02T22:30:28.531Z,85.62
2018-06-02T22:32:57.816Z,85.47
2018-06-02T22:35:25.904Z,85.15
2018-06-02T22:37:54.013Z,85.14
2018-06-02T22:40:22.413Z,85.16
2018-06-02T22:42:50.511Z,85.92
2018-06-02T22:45:18.897Z,85.66
2018-06-02T22:47:47.538Z,86.18
2018-06-02T22:50:17.121Z,85.49
2018-06-02T22:52:45.209Z,85.32
2018-06-02T22:55:13.461Z,85.18
2018-06-02T22:57:41.556Z,85.71
2018-06-02T23:00:10.608Z,86.37
2018-06-02T23:02:38.695Z,86.52
2018-06-02T23:05:07.768Z,87.17
2018-06-02T23:07:35.885Z,87.43
2018-06-02T23:10:03.990Z,87.68
2018-06-02T23:12:32.081Z,87.70
2018-06-02T23:15:00.156Z,87.44
2018-06-02T23:17:28.531Z,87.60
2018-06-02T23:19:56.903Z,87.42
2018-06-02T23:22:36.252Z,87.87
2018-06-02T23:25:04.769Z,87.72
2018-06-02T23:27:32.976Z,86.95
2018-06-02T23:30:01.044Z,87.36
2018-06-02T23:32:29.207Z,87.67
2018-06-02T23:34:57.285Z,88.84
2018-06-02T23:37:25.399Z,88.98
2018-06-02T23:39:53.569Z,88.68
2018-06-02T23:42:22.381Z,88.68
2018-06-02T23:44:50.475Z,89.01
2018-06-02T23:47:18.825Z,89.06
2018-06-02T23:49:47.629Z,88.71
2018-06-02T23:52:15.789Z,88.58
2018-06-02T23:54:43.865Z,88.30
2018-06-02T23:57:11.980Z,88.20
2018-06-02T23:59:40.197Z,88.63
